Terminal Aerodrome Forecast
Issued by NWS Twin Cities, MN

Home | Current Version | Previous Version | Text Only | Print | Product List | Glossary Off
Versions: 1 2 3 4 5 6 7 8 9 10 11 12 13 14 15 16 17 18 19 20 21 22 23 24 25 26 27 28 29 30

000
FTUS43 KMPX 011400 AAB
TAFMSP
TAF AMD
KMSP 011415Z 0114/0218 13012KT 5SM -SHRA OVC008
     FM011600 14009KT 6SM -SHRA BR BKN008 OVC010
     FM012200 15007KT P6SM VCSH SCT015 OVC022
     FM020200 20005KT P6SM SCT015 BKN070
     FM020700 VRB03KT 4SM BR BKN007
     FM021500 33003KT P6SM OVC009=

USA.gov is the U.S. government's official web portal to all federal, state and local government web resources and services.